createdAt,value
2018-03-06T00:00:52.037Z,83.40
2018-03-06T00:01:54.567Z,83.60
2018-03-06T00:02:57.194Z,83.60
2018-03-06T00:03:59.748Z,83.80
2018-03-06T00:05:02.262Z,83.40
2018-03-06T00:06:04.795Z,83.50
2018-03-06T00:07:07.345Z,83.60
2018-03-06T00:08:09.878Z,83.50
2018-03-06T00:09:13.176Z,83.50
2018-03-06T00:10:16.454Z,83.60
2018-03-06T00:11:19.730Z,83.70
2018-03-06T00:12:23.022Z,83.70
2018-03-06T00:13:26.298Z,83.60
2018-03-06T00:14:29.565Z,83.70
2018-03-06T00:15:32.077Z,83.70
2018-03-06T00:16:34.595Z,83.60
2018-03-06T00:17:37.126Z,83.70
2018-03-06T00:18:39.641Z,83.80
2018-03-06T00:19:42.973Z,83.80
2018-03-06T00:20:45.493Z,83.80
2018-03-06T00:21:48.782Z,83.70
2018-03-06T00:22:52.082Z,83.80
2018-03-06T00:23:54.663Z,83.80
2018-03-06T00:24:57.190Z,83.50
2018-03-06T00:26:00.478Z,83.30
2018-03-06T00:27:03.747Z,83.20
2018-03-06T00:28:06.350Z,83.10
2018-03-06T00:29:08.864Z,83.50
2018-03-06T00:30:11.373Z,83.70
2018-03-06T00:31:13.890Z,83.70
2018-03-06T00:32:16.397Z,84.00
2018-03-06T00:33:19.694Z,84.40
2018-03-06T00:34:22.222Z,84.40
2018-03-06T00:35:24.732Z,84.80
2018-03-06T00:36:27.249Z,85.10
2018-03-06T00:37:29.754Z,85.60
2018-03-06T00:38:32.289Z,85.80
2018-03-06T00:39:35.567Z,87.00
2018-03-06T00:40:38.101Z,87.00
2018-03-06T00:41:40.621Z,87.20
2018-03-06T00:42:43.914Z,87.40
2018-03-06T00:43:46.438Z,87.30
2018-03-06T00:44:49.599Z,87.20
2018-03-06T00:45:52.131Z,87.30
2018-03-06T00:46:54.656Z,87.30
2018-03-06T00:47:57.182Z,87.40
2018-03-06T00:48:59.720Z,87.40
2018-03-06T00:50:02.999Z,87.40
2018-03-06T00:51:05.544Z,87.40
2018-03-06T00:52:08.899Z,87.60
2018-03-06T00:53:11.434Z,87.40
2018-03-06T00:54:13.958Z,87.40
2018-03-06T00:55:17.251Z,87.40
2018-03-06T00:56:20.694Z,87.40
2018-03-06T00:57:23.218Z,87.30
2018-03-06T00:58:25.758Z,87.40
2018-03-06T00:59:28.293Z,87.40
2018-03-06T01:00:30.851Z,87.40
2018-03-06T01:01:33.391Z,87.40
2018-03-06T01:02:35.939Z,87.40
2018-03-06T01:03:39.251Z,87.50
2018-03-06T01:04:41.774Z,87.60
2018-03-06T01:05:44.295Z,87.70
2018-03-06T01:06:46.832Z,88.00
2018-03-06T01:07:49.361Z,88.10
2018-03-06T01:08:51.898Z,88.20
2018-03-06T01:09:54.410Z,88.30
2018-03-06T01:10:57.691Z,88.60
2018-03-06T01:12:00.980Z,89.10
2018-03-06T01:13:04.262Z,88.40
2018-03-06T01:14:07.570Z,88.20
2018-03-06T01:15:11.683Z,88.10
2018-03-06T01:16:14.246Z,88.10
2018-03-06T01:17:16.831Z,88.00
2018-03-06T01:18:19.338Z,88.10
2018-03-06T01:19:23.704Z,88.20
2018-03-06T01:20:26.221Z,88.20
2018-03-06T01:21:29.499Z,88.50
2018-03-06T01:22:32.019Z,88.50
2018-03-06T01:23:34.535Z,88.50
2018-03-06T01:24:37.859Z,88.30
2018-03-06T01:25:40.374Z,88.20
2018-03-06T01:26:42.907Z,88.20
2018-03-06T01:27:45.423Z,88.20
2018-03-06T01:28:48.699Z,88.50
2018-03-06T01:29:52.005Z,88.70
2018-03-06T01:30:54.582Z,88.70
2018-03-06T01:31:57.109Z,88.80
2018-03-06T01:32:59.624Z,88.80
2018-03-06T01:34:02.142Z,88.80
2018-03-06T01:35:04.703Z,88.90
2018-03-06T01:36:07.239Z,88.90
2018-03-06T01:37:09.759Z,89.10
2018-03-06T01:38:13.043Z,89.40
2018-03-06T01:39:16.362Z,89.50
2018-03-06T01:40:18.894Z,89.50
2018-03-06T01:41:21.422Z,89.50
2018-03-06T01:42:24.046Z,89.50
2018-03-06T01:43:26.565Z,89.40
2018-03-06T01:44:29.114Z,89.50
2018-03-06T01:45:31.667Z,89.80
2018-03-06T01:46:34.175Z,90.00
2018-03-06T01:47:37.467Z,90.10
2018-03-06T01:48:40.758Z,90.30
2018-03-06T01:49:43.274Z,90.20
2018-03-06T01:50:45.834Z,90.30
2018-03-06T01:51:58.285Z,90.50
2018-03-06T01:53:00.827Z,90.60
2018-03-06T01:54:04.366Z,90.60
2018-03-06T01:55:06.887Z,90.60
2018-03-06T01:56:09.437Z,90.70
2018-03-06T01:57:11.964Z,90.70
2018-03-06T01:58:14.487Z,90.80
2018-03-06T01:59:17.018Z,91.00
2018-03-06T02:00:19.546Z,91.10
2018-03-06T02:01:22.082Z,91.10
2018-03-06T02:02:24.706Z,91.10
2018-03-06T02:03:27.226Z,91.00
2018-03-06T02:04:30.510Z,91.00
2018-03-06T02:05:33.798Z,90.90
2018-03-06T02:06:37.106Z,90.80
2018-03-06T02:07:39.616Z,90.80
2018-03-06T02:08:42.127Z,90.70
2018-03-06T02:09:44.651Z,90.60
2018-03-06T02:10:47.273Z,90.60
2018-03-06T02:11:49.835Z,90.70
2018-03-06T02:12:52.404Z,90.70
2018-03-06T02:13:54.930Z,90.70
2018-03-06T02:14:57.534Z,90.70
2018-03-06T02:16:00.108Z,90.60
2018-03-06T02:17:02.666Z,90.60
2018-03-06T02:18:05.196Z,90.60
2018-03-06T02:19:07.731Z,90.60
2018-03-06T02:20:10.263Z,90.50
2018-03-06T02:21:12.786Z,90.50
2018-03-06T02:22:15.411Z,90.50
2018-03-06T02:23:17.934Z,90.50
2018-03-06T02:24:21.226Z,90.40
2018-03-06T02:25:24.520Z,90.40
2018-03-06T02:26:27.046Z,90.40
2018-03-06T02:27:29.591Z,90.30
2018-03-06T02:28:32.110Z,90.30
2018-03-06T02:29:34.630Z,90.20
2018-03-06T02:30:37.159Z,90.20
2018-03-06T02:31:39.692Z,90.10
2018-03-06T02:32:43.002Z,90.20
2018-03-06T02:33:45.522Z,90.00
2018-03-06T02:34:48.043Z,90.00
2018-03-06T02:35:50.567Z,90.00
2018-03-06T02:36:53.854Z,90.20
2018-03-06T02:37:57.171Z,90.30
2018-03-06T02:38:59.710Z,90.20
2018-03-06T02:40:03.003Z,90.60
2018-03-06T02:41:06.290Z,90.60
2018-03-06T02:42:09.585Z,90.60
2018-03-06T02:43:12.138Z,90.60
2018-03-06T02:44:15.423Z,90.60
2018-03-06T02:45:18.714Z,90.60
2018-03-06T02:46:21.255Z,90.60
2018-03-06T02:47:24.543Z,90.90
2018-03-06T02:48:27.854Z,90.60
2018-03-06T02:49:30.431Z,90.60
2018-03-06T02:50:32.955Z,90.50
2018-03-06T02:51:36.289Z,90.50
2018-03-06T02:52:38.838Z,90.50
2018-03-06T02:53:41.719Z,90.40
2018-03-06T02:54:44.235Z,90.40
2018-03-06T02:55:46.858Z,90.40
2018-03-06T02:56:49.400Z,90.50
2018-03-06T02:57:51.995Z,90.50
2018-03-06T02:58:54.854Z,90.70
2018-03-06T02:59:57.393Z,90.40
2018-03-06T03:01:00.683Z,90.40
2018-03-06T03:02:03.971Z,90.30
2018-03-06T03:03:07.247Z,90.20
2018-03-06T03:04:10.556Z,90.20
2018-03-06T03:05:13.094Z,90.20
2018-03-06T03:06:16.392Z,90.10
2018-03-06T03:07:18.921Z,90.00
2018-03-06T03:08:21.443Z,90.30
2018-03-06T03:09:23.982Z,90.00
2018-03-06T03:10:27.266Z,90.10
2018-03-06T03:11:30.555Z,90.00
2018-03-06T03:12:33.154Z,90.00
2018-03-06T03:13:35.717Z,90.00
2018-03-06T03:14:38.274Z,90.00
2018-03-06T03:15:40.795Z,90.00
2018-03-06T03:16:44.127Z,90.00
2018-03-06T03:17:46.650Z,90.20
2018-03-06T03:18:49.947Z,90.40
2018-03-06T03:19:53.248Z,90.50
2018-03-06T03:20:55.822Z,90.50
2018-03-06T03:21:58.399Z,90.50
2018-03-06T03:23:00.924Z,90.60
2018-03-06T03:24:04.203Z,90.60
2018-03-06T03:25:06.731Z,90.60
2018-03-06T03:26:09.250Z,90.60
2018-03-06T03:27:11.766Z,90.60
2018-03-06T03:28:14.279Z,90.50
2018-03-06T03:29:17.563Z,90.30
2018-03-06T03:30:20.104Z,90.30
2018-03-06T03:31:22.631Z,90.30
2018-03-06T03:32:25.155Z,90.20
2018-03-06T03:33:28.439Z,90.20
2018-03-06T03:34:31.730Z,90.20
2018-03-06T03:35:34.270Z,90.20
2018-03-06T03:36:36.792Z,90.30
2018-03-06T03:37:39.298Z,90.70
2018-03-06T03:38:41.823Z,90.40
2018-03-06T03:39:44.343Z,90.30
2018-03-06T03:40:47.674Z,90.20
2018-03-06T03:41:50.198Z,90.50
2018-03-06T03:42:53.492Z,90.10
2018-03-06T03:43:56.023Z,90.10
2018-03-06T03:44:58.548Z,90.10
2018-03-06T03:46:01.088Z,90.00
2018-03-06T03:47:03.612Z,90.00
2018-03-06T03:48:06.243Z,90.00
2018-03-06T03:49:08.811Z,89.80
2018-03-06T03:50:11.328Z,89.80
2018-03-06T03:51:13.866Z,89.90
2018-03-06T03:52:16.383Z,90.20
2018-03-06T03:53:19.671Z,89.40
2018-03-06T03:54:22.942Z,89.10
2018-03-06T03:55:26.233Z,89.10
2018-03-06T03:56:29.550Z,89.30
2018-03-06T03:57:32.089Z,89.30
2018-03-06T03:58:34.618Z,89.30
2018-03-06T03:59:37.135Z,89.30
2018-03-06T04:00:39.662Z,89.30
2018-03-06T04:01:43.002Z,89.20
2018-03-06T04:02:45.522Z,89.10
2018-03-06T04:03:48.815Z,89.10
2018-03-06T04:04:52.109Z,88.90
2018-03-06T04:05:54.638Z,88.80
2018-03-06T04:06:57.178Z,88.70
2018-03-06T04:07:59.711Z,88.20
2018-03-06T04:09:02.234Z,88.80
2018-03-06T04:10:04.775Z,88.70
2018-03-06T04:11:07.318Z,88.80
2018-03-06T04:12:09.862Z,88.50
2018-03-06T04:13:13.146Z,88.10
2018-03-06T04:14:15.671Z,88.10
2018-03-06T04:15:19.699Z,88.90
2018-03-06T04:16:22.982Z,88.50
2018-03-06T04:17:26.311Z,88.10
2018-03-06T04:18:28.822Z,88.00
2018-03-06T04:19:31.343Z,88.10
2018-03-06T04:20:33.866Z,88.10
2018-03-06T04:21:37.154Z,88.50
2018-03-06T04:22:40.482Z,88.60
2018-03-06T04:23:42.999Z,88.50
2018-03-06T04:24:46.282Z,89.00
2018-03-06T04:25:49.571Z,89.20
2018-03-06T04:26:52.854Z,89.40
2018-03-06T04:27:56.157Z,89.70
2018-03-06T04:28:58.684Z,89.70
2018-03-06T04:30:01.215Z,89.80
2018-03-06T04:31:03.827Z,90.20
2018-03-06T04:32:07.122Z,90.00
2018-03-06T04:33:10.423Z,90.00
2018-03-06T04:34:12.946Z,90.00
2018-03-06T04:35:15.480Z,90.00
2018-03-06T04:36:18.006Z,90.10
2018-03-06T04:37:20.534Z,90.10
2018-03-06T04:38:23.078Z,90.10
2018-03-06T04:39:25.600Z,90.10
2018-03-06T04:40:28.884Z,90.10
2018-03-06T04:41:32.172Z,90.10
2018-03-06T04:42:34.706Z,90.10
2018-03-06T04:43:37.257Z,90.00
2018-03-06T04:44:39.779Z,90.00
2018-03-06T04:45:42.296Z,90.20
2018-03-06T04:46:44.846Z,90.20
2018-03-06T04:47:47.366Z,90.30
2018-03-06T04:48:49.912Z,90.40
2018-03-06T04:49:53.202Z,90.40
2018-03-06T04:50:56.500Z,90.30
2018-03-06T04:51:59.034Z,90.30
2018-03-06T04:53:01.555Z,90.20
2018-03-06T04:54:04.098Z,90.20
2018-03-06T04:55:07.386Z,90.10
2018-03-06T04:56:09.925Z,90.10
2018-03-06T04:57:12.448Z,90.00
2018-03-06T04:58:14.990Z,90.10
2018-03-06T04:59:17.890Z,89.80
2018-03-06T05:00:20.435Z,89.80
2018-03-06T05:01:22.987Z,89.70
2018-03-06T05:02:25.532Z,89.50
2018-03-06T05:03:28.827Z,89.60
2018-03-06T05:04:32.135Z,89.60
2018-03-06T05:05:34.662Z,89.60
2018-03-06T05:06:37.185Z,89.60
2018-03-06T05:07:39.743Z,89.60
2018-03-06T05:08:42.263Z,89.40
2018-03-06T05:09:44.794Z,89.30
2018-03-06T05:10:47.317Z,90.00
2018-03-06T05:11:50.612Z,88.80
2018-03-06T05:12:53.135Z,88.80
2018-03-06T05:13:55.675Z,88.60
2018-03-06T05:14:58.230Z,88.60
2018-03-06T05:16:00.759Z,88.60
2018-03-06T05:17:04.057Z,88.70
2018-03-06T05:18:06.583Z,88.70
2018-03-06T05:19:09.109Z,88.60
2018-03-06T05:20:11.966Z,88.50
2018-03-06T05:21:14.490Z,88.40
2018-03-06T05:22:17.027Z,88.20
2018-03-06T05:23:19.558Z,88.00
2018-03-06T05:24:22.082Z,88.10
2018-03-06T05:25:24.639Z,88.20
2018-03-06T05:26:27.154Z,88.40
2018-03-06T05:27:29.679Z,88.40
2018-03-06T05:28:32.211Z,88.60
2018-03-06T05:29:34.744Z,88.60
2018-03-06T05:30:37.282Z,88.60
2018-03-06T05:31:39.901Z,88.60
2018-03-06T05:32:42.424Z,88.80
2018-03-06T05:33:45.711Z,88.90
2018-03-06T05:34:48.230Z,88.80
2018-03-06T05:35:50.787Z,89.00
2018-03-06T05:36:53.311Z,89.00
2018-03-06T05:37:56.594Z,89.20
2018-03-06T05:38:59.986Z,89.20
2018-03-06T05:40:02.454Z,89.20
2018-03-06T05:41:05.763Z,89.20
2018-03-06T05:42:08.290Z,89.20
2018-03-06T05:43:11.586Z,90.00
2018-03-06T05:44:14.110Z,89.30
2018-03-06T05:45:16.628Z,89.50
2018-03-06T05:46:19.185Z,89.50
2018-03-06T05:47:21.711Z,89.60
2018-03-06T05:48:24.244Z,89.50
2018-03-06T05:49:26.766Z,89.50
2018-03-06T05:50:30.062Z,89.50
2018-03-06T05:51:33.370Z,89.50
2018-03-06T05:52:35.908Z,89.50
2018-03-06T05:53:39.211Z,89.40
2018-03-06T05:54:41.735Z,89.40
2018-03-06T05:55:44.259Z,89.30
2018-03-06T05:56:46.811Z,89.30
2018-03-06T05:57:49.333Z,89.30
2018-03-06T05:58:51.866Z,89.40
2018-03-06T05:59:54.395Z,89.40
2018-03-06T06:00:56.946Z,89.30
2018-03-06T06:01:59.470Z,89.30
2018-03-06T06:03:02.003Z,89.40
2018-03-06T06:04:04.534Z,89.40
2018-03-06T06:05:07.837Z,89.50
2018-03-06T06:06:11.136Z,89.50
2018-03-06T06:07:13.714Z,89.50
2018-03-06T06:08:16.256Z,89.30
2018-03-06T06:09:19.543Z,89.20
2018-03-06T06:10:22.113Z,89.20
2018-03-06T06:11:24.860Z,89.20
2018-03-06T06:12:28.211Z,89.10
2018-03-06T06:13:30.788Z,89.10
2018-03-06T06:14:33.276Z,89.00
2018-03-06T06:15:35.783Z,88.80
2018-03-06T06:16:38.335Z,88.60
2018-03-06T06:17:40.873Z,88.40
2018-03-06T06:18:43.396Z,88.30
2018-03-06T06:19:45.921Z,88.10
2018-03-06T06:20:48.459Z,88.00
2018-03-06T06:21:50.958Z,87.90
2018-03-06T06:22:54.274Z,87.30
2018-03-06T06:23:56.784Z,87.30
2018-03-06T06:24:59.294Z,87.10
2018-03-06T06:26:01.847Z,87.10
2018-03-06T06:27:05.132Z,86.80
2018-03-06T06:28:08.650Z,86.80
2018-03-06T06:29:11.156Z,86.80
2018-03-06T06:30:13.662Z,86.60
2018-03-06T06:31:16.176Z,86.70
2018-03-06T06:32:18.683Z,86.60
2018-03-06T06:33:21.975Z,86.50
2018-03-06T06:34:24.571Z,86.50
2018-03-06T06:35:27.170Z,86.50
2018-03-06T06:36:29.757Z,86.60
2018-03-06T06:37:33.043Z,87.00
2018-03-06T06:38:36.370Z,86.90
2018-03-06T06:39:38.876Z,86.90
2018-03-06T06:40:41.471Z,87.50
2018-03-06T06:41:44.747Z,87.10
2018-03-06T06:42:48.060Z,86.70
2018-03-06T06:43:50.634Z,86.70
2018-03-06T06:44:54.012Z,86.50
2018-03-06T06:45:56.523Z,86.40
2018-03-06T06:46:59.938Z,86.10
2018-03-06T06:48:03.314Z,86.00
2018-03-06T06:49:06.616Z,86.00
2018-03-06T06:50:09.159Z,86.00
2018-03-06T06:51:11.697Z,86.00
2018-03-06T06:52:14.233Z,86.00
2018-03-06T06:53:16.738Z,86.00
2018-03-06T06:54:19.301Z,86.20
2018-03-06T06:55:21.839Z,86.60
2018-03-06T06:56:24.344Z,85.80
2018-03-06T06:57:28.368Z,85.50
2018-03-06T06:58:31.648Z,85.50
2018-03-06T06:59:34.944Z,85.50
2018-03-06T07:00:37.481Z,85.50
2018-03-06T07:01:40.091Z,85.30
2018-03-06T07:02:42.607Z,85.30
2018-03-06T07:03:45.128Z,84.30
2018-03-06T07:04:47.662Z,84.60
2018-03-06T07:05:50.934Z,84.10
2018-03-06T07:06:53.446Z,84.00
2018-03-06T07:07:55.955Z,84.20
2018-03-06T07:08:58.462Z,85.00
2018-03-06T07:10:01.330Z,84.60
2018-03-06T07:11:03.859Z,84.60
2018-03-06T07:12:06.475Z,84.50
2018-03-06T07:13:08.984Z,84.50
2018-03-06T07:14:12.278Z,84.80
2018-03-06T07:15:14.808Z,85.20
2018-03-06T07:16:17.311Z,85.30
2018-03-06T07:17:19.838Z,85.30
2018-03-06T07:18:22.344Z,85.40
2018-03-06T07:19:25.674Z,85.50
2018-03-06T07:20:28.203Z,85.30
2018-03-06T07:21:31.503Z,85.70
2018-03-06T07:22:34.770Z,84.80
2018-03-06T07:23:38.078Z,84.90
2018-03-06T07:24:40.601Z,84.90
2018-03-06T07:25:43.127Z,84.90
2018-03-06T07:26:45.643Z,84.80
2018-03-06T07:27:48.146Z,84.60
2018-03-06T07:28:50.663Z,84.80
2018-03-06T07:29:53.195Z,84.30
2018-03-06T07:30:55.715Z,84.20
2018-03-06T07:31:58.998Z,84.40
2018-03-06T07:33:02.286Z,84.30
2018-03-06T07:34:05.563Z,84.20
2018-03-06T07:35:08.855Z,83.90
2018-03-06T07:36:12.165Z,83.70
2018-03-06T07:37:14.696Z,83.70
2018-03-06T07:38:17.970Z,83.90
2018-03-06T07:39:20.487Z,83.80
2018-03-06T07:40:22.998Z,83.70
2018-03-06T07:41:25.524Z,83.40
2018-03-06T07:42:28.035Z,83.20
2018-03-06T07:43:30.537Z,83.30
2018-03-06T07:44:33.043Z,83.40
2018-03-06T07:45:35.539Z,83.60
2018-03-06T07:46:38.844Z,83.90
2018-03-06T07:47:41.363Z,83.80
2018-03-06T07:48:43.882Z,83.60
2018-03-06T07:49:46.392Z,83.50
2018-03-06T07:50:48.892Z,83.60
2018-03-06T07:51:52.192Z,84.00
2018-03-06T07:52:55.104Z,83.90
2018-03-06T07:53:57.610Z,84.00
2018-03-06T07:55:00.884Z,83.90
2018-03-06T07:56:03.446Z,83.80
2018-03-06T07:57:05.976Z,85.10
2018-03-06T07:58:08.499Z,85.60
2018-03-06T07:59:11.762Z,85.00
2018-03-06T08:00:14.296Z,85.00
2018-03-06T08:01:16.852Z,85.40
2018-03-06T08:02:19.398Z,85.00
2018-03-06T08:03:21.918Z,84.70
2018-03-06T08:04:24.507Z,83.80
2018-03-06T08:05:27.775Z,83.00
2018-03-06T08:06:30.363Z,83.00
2018-03-06T08:07:32.894Z,82.30
2018-03-06T08:08:35.416Z,82.60
2018-03-06T08:09:37.927Z,82.10
2018-03-06T08:10:40.491Z,81.70
2018-03-06T08:11:42.992Z,81.70
2018-03-06T08:12:45.543Z,81.50
2018-03-06T08:13:48.819Z,81.80
2018-03-06T08:14:51.332Z,81.70
2018-03-06T08:15:53.852Z,81.70
2018-03-06T08:16:56.358Z,81.60
2018-03-06T08:17:58.892Z,81.70
2018-03-06T08:19:02.212Z,81.50
2018-03-06T08:20:04.730Z,82.10
2018-03-06T08:21:07.265Z,81.30
2018-03-06T08:22:09.815Z,82.10
2018-03-06T08:23:12.347Z,81.10
2018-03-06T08:24:16.382Z,81.00
2018-03-06T08:25:18.917Z,80.90
2018-03-06T08:26:22.187Z,81.30
2018-03-06T08:27:25.479Z,81.30
2018-03-06T08:28:28.775Z,80.80
2018-03-06T08:29:31.280Z,80.80
2018-03-06T08:30:33.801Z,79.30
2018-03-06T08:31:37.076Z,79.00
2018-03-06T08:32:40.344Z,79.30
2018-03-06T08:33:42.951Z,79.20
2018-03-06T08:34:45.507Z,80.10
2018-03-06T08:35:48.875Z,79.70
2018-03-06T08:36:52.197Z,80.00
2018-03-06T08:37:54.722Z,80.00
2018-03-06T08:38:58.014Z,80.10
2018-03-06T08:40:01.310Z,80.40
2018-03-06T08:41:03.815Z,80.20
2018-03-06T08:42:06.320Z,80.50
2018-03-06T08:43:09.602Z,80.90
2018-03-06T08:44:12.945Z,80.90
2018-03-06T08:45:15.481Z,80.90
2018-03-06T08:46:20.100Z,81.10
2018-03-06T08:47:22.608Z,81.20
2018-03-06T08:48:25.109Z,81.20
2018-03-06T08:49:28.387Z,81.00
2018-03-06T08:50:31.676Z,80.90
2018-03-06T08:51:34.951Z,80.70
2018-03-06T08:52:38.222Z,80.80
2018-03-06T08:53:40.763Z,80.60
2018-03-06T08:54:43.282Z,80.80
2018-03-06T08:55:46.559Z,81.20
2018-03-06T08:56:49.836Z,81.20
2018-03-06T08:57:53.111Z,80.80
2018-03-06T08:58:56.869Z,80.80
2018-03-06T08:59:59.407Z,80.80
2018-03-06T09:01:01.919Z,80.70
2018-03-06T09:02:04.434Z,80.50
2018-03-06T09:03:06.950Z,80.60
2018-03-06T09:04:09.476Z,81.20
2018-03-06T09:05:12.037Z,80.50
2018-03-06T09:06:14.791Z,80.20
2018-03-06T09:07:17.314Z,79.80
2018-03-06T09:08:19.815Z,79.50
2018-03-06T09:09:23.087Z,77.50
2018-03-06T09:10:26.398Z,76.90
2018-03-06T09:11:28.915Z,76.90
2018-03-06T09:12:31.442Z,75.20
2018-03-06T09:13:33.970Z,74.80
2018-03-06T09:14:37.258Z,74.70
2018-03-06T09:15:40.632Z,74.70
2018-03-06T09:16:44.006Z,74.60
2018-03-06T09:17:46.539Z,74.60
2018-03-06T09:18:49.109Z,74.80
2018-03-06T09:19:51.624Z,75.00
2018-03-06T09:20:54.929Z,75.20
2018-03-06T09:21:57.484Z,75.20
2018-03-06T09:23:01.006Z,75.60
2018-03-06T09:24:03.530Z,75.50
2018-03-06T09:25:06.851Z,73.70
2018-03-06T09:26:09.403Z,73.70
2018-03-06T09:27:11.948Z,73.40
2018-03-06T09:28:15.278Z,71.90
2018-03-06T09:29:17.782Z,71.90
2018-03-06T09:30:21.047Z,71.30
2018-03-06T09:31:23.591Z,70.60
2018-03-06T09:32:26.136Z,69.90
2018-03-06T09:33:28.651Z,69.80
2018-03-06T09:34:31.161Z,69.90
2018-03-06T09:35:33.663Z,69.80
2018-03-06T09:36:36.926Z,70.10
2018-03-06T09:37:39.471Z,70.40
2018-03-06T09:38:42.048Z,70.20
2018-03-06T09:39:44.583Z,70.10
2018-03-06T09:40:47.905Z,69.40
2018-03-06T09:41:50.446Z,69.40
2018-03-06T09:42:53.718Z,69.10
2018-03-06T09:43:57.001Z,69.40
2018-03-06T09:45:00.290Z,69.20
2018-03-06T09:46:03.611Z,69.20
2018-03-06T09:47:06.299Z,69.10
2018-03-06T09:48:09.043Z,69.50
2018-03-06T09:49:12.307Z,69.20
2018-03-06T09:50:15.616Z,69.40
2018-03-06T09:51:18.130Z,69.40
2018-03-06T09:52:22.196Z,68.90
2018-03-06T09:53:24.713Z,68.80
2018-03-06T09:54:28.004Z,69.10
2018-03-06T09:55:31.279Z,68.50
2018-03-06T09:56:34.566Z,68.50
2018-03-06T09:57:37.859Z,68.40
2018-03-06T09:58:41.146Z,67.90
2018-03-06T09:59:43.687Z,67.90
2018-03-06T10:00:46.986Z,67.90
2018-03-06T10:01:49.516Z,67.40
2018-03-06T10:02:52.051Z,67.10
2018-03-06T10:03:54.569Z,66.80
2018-03-06T10:04:57.900Z,67.10
2018-03-06T10:06:00.434Z,67.10
2018-03-06T10:07:03.731Z,68.10
2018-03-06T10:08:06.305Z,68.10
2018-03-06T10:09:08.850Z,68.40
2018-03-06T10:10:12.127Z,68.10
2018-03-06T10:11:15.409Z,68.20
2018-03-06T10:12:18.720Z,68.30
2018-03-06T10:13:21.295Z,68.20
2018-03-06T10:14:23.815Z,68.20
2018-03-06T10:15:26.470Z,68.30
2018-03-06T10:16:29.768Z,68.00
2018-03-06T10:17:32.270Z,67.80
2018-03-06T10:18:34.805Z,67.70
2018-03-06T10:19:38.095Z,68.50
2018-03-06T10:20:41.367Z,68.70
2018-03-06T10:21:43.880Z,68.60
2018-03-06T10:22:47.460Z,69.60
2018-03-06T10:23:50.277Z,68.80
2018-03-06T10:24:52.799Z,68.70
2018-03-06T10:25:55.327Z,68.70
2018-03-06T10:26:57.839Z,69.10
2018-03-06T10:28:00.349Z,68.60
2018-03-06T10:29:02.882Z,68.60
2018-03-06T10:30:06.115Z,68.90
2018-03-06T10:31:09.400Z,69.40
2018-03-06T10:32:12.733Z,69.70
2018-03-06T10:33:15.266Z,69.60
2018-03-06T10:34:17.850Z,70.00
2018-03-06T10:35:20.379Z,69.90
2018-03-06T10:36:23.656Z,69.60
2018-03-06T10:37:26.210Z,69.50
2018-03-06T10:38:28.715Z,69.10
2018-03-06T10:39:31.257Z,68.60
2018-03-06T10:40:34.534Z,68.10
2018-03-06T10:41:37.047Z,68.10
2018-03-06T10:42:39.559Z,68.10
2018-03-06T10:43:42.067Z,67.60
2018-03-06T10:44:44.614Z,67.70
2018-03-06T10:45:47.893Z,68.30
2018-03-06T10:46:51.169Z,68.20
2018-03-06T10:47:54.464Z,68.00
2018-03-06T10:48:57.735Z,67.80
2018-03-06T10:50:01.051Z,67.50
2018-03-06T10:51:03.563Z,67.30
2018-03-06T10:52:06.076Z,67.00
2018-03-06T10:53:08.587Z,66.60
2018-03-06T10:54:11.152Z,65.90
2018-03-06T10:55:13.733Z,65.20
2018-03-06T10:56:16.278Z,65.10
2018-03-06T10:57:18.822Z,65.00
2018-03-06T10:58:21.538Z,65.10
2018-03-06T10:59:24.053Z,64.70
2018-03-06T11:00:32.218Z,64.60
2018-03-06T11:01:36.373Z,64.70
2018-03-06T11:02:43.711Z,64.70
2018-03-06T11:03:46.995Z,65.00
2018-03-06T11:04:50.312Z,64.70
2018-03-06T11:05:53.753Z,64.70
2018-03-06T11:06:58.038Z,64.40
2018-03-06T11:08:00.547Z,65.00
2018-03-06T11:09:03.424Z,64.10
2018-03-06T11:10:07.699Z,64.20
2018-03-06T11:11:10.990Z,64.60
2018-03-06T11:12:14.260Z,64.80
2018-03-06T11:13:17.543Z,64.80
2018-03-06T11:14:21.975Z,64.80
2018-03-06T11:15:25.296Z,63.90
2018-03-06T11:16:27.939Z,63.90
2018-03-06T11:17:31.436Z,63.80
2018-03-06T11:18:33.977Z,63.70
2018-03-06T11:19:37.999Z,63.40
2018-03-06T11:20:40.997Z,63.20
2018-03-06T11:21:43.602Z,63.00
2018-03-06T11:22:47.070Z,63.20
2018-03-06T11:23:49.587Z,63.30
2018-03-06T11:24:52.913Z,63.20
2018-03-06T11:25:55.435Z,63.20
2018-03-06T11:26:58.739Z,62.60
2018-03-06T11:28:01.246Z,63.20
2018-03-06T11:29:05.348Z,62.50
2018-03-06T11:30:08.515Z,62.30
2018-03-06T11:31:11.059Z,62.10
2018-03-06T11:32:13.587Z,61.80
2018-03-06T11:33:17.746Z,61.20
2018-03-06T11:34:20.294Z,61.10
2018-03-06T11:35:24.055Z,60.60
2018-03-06T11:36:26.731Z,59.80
2018-03-06T11:37:29.338Z,59.70
2018-03-06T11:38:31.843Z,59.70
2018-03-06T11:39:34.517Z,59.50
2018-03-06T11:40:37.038Z,59.60
2018-03-06T11:41:39.561Z,59.60
2018-03-06T11:42:46.379Z,59.40
2018-03-06T11:43:49.753Z,59.40
2018-03-06T11:44:52.284Z,59.40
2018-03-06T11:45:55.278Z,59.20
2018-03-06T11:46:57.791Z,58.70
2018-03-06T11:48:00.358Z,58.30
2018-03-06T11:49:02.873Z,58.30
2018-03-06T11:50:05.387Z,58.40
2018-03-06T11:51:07.916Z,58.30
2018-03-06T11:52:10.474Z,58.00
2018-03-06T11:53:13.004Z,58.00
2018-03-06T11:54:18.062Z,57.90
2018-03-06T11:55:20.589Z,57.90
2018-03-06T11:56:23.134Z,57.90
2018-03-06T11:57:25.662Z,57.90
2018-03-06T11:58:28.221Z,57.80
2018-03-06T11:59:31.065Z,57.80
2018-03-06T12:00:34.358Z,58.20
2018-03-06T12:01:37.672Z,57.90
2018-03-06T12:02:40.207Z,57.90
2018-03-06T12:03:43.523Z,57.70
2018-03-06T12:04:46.023Z,57.60
2018-03-06T12:05:48.534Z,57.70
2018-03-06T12:06:51.055Z,57.50
2018-03-06T12:07:53.594Z,57.50
2018-03-06T12:08:58.296Z,57.70
2018-03-06T12:10:00.808Z,58.00
2018-03-06T12:11:03.318Z,58.10
2018-03-06T12:12:05.835Z,57.90
2018-03-06T12:13:08.359Z,57.80
2018-03-06T12:14:11.230Z,57.80
2018-03-06T12:15:13.768Z,57.80
2018-03-06T12:16:17.097Z,58.00
2018-03-06T12:17:19.595Z,58.00
2018-03-06T12:18:22.109Z,58.20
2018-03-06T12:19:24.663Z,58.30
2018-03-06T12:20:27.958Z,58.40
2018-03-06T12:21:30.585Z,58.40
2018-03-06T12:22:33.110Z,58.30
2018-03-06T12:23:35.610Z,58.20
2018-03-06T12:24:39.274Z,58.00
2018-03-06T12:25:41.774Z,57.70
2018-03-06T12:26:44.289Z,57.80
2018-03-06T12:27:46.801Z,57.20
2018-03-06T12:28:49.320Z,57.70
2018-03-06T12:29:51.854Z,57.80
2018-03-06T12:30:55.136Z,57.70
2018-03-06T12:31:58.456Z,57.60
2018-03-06T12:33:04.216Z,57.60
2018-03-06T12:34:06.726Z,57.60
2018-03-06T12:35:10.026Z,58.20
2018-03-06T12:36:16.288Z,57.70
2018-03-06T12:37:19.811Z,57.60
2018-03-06T12:38:22.342Z,57.40
2018-03-06T12:39:24.919Z,57.10
2018-03-06T12:40:27.449Z,57.10
2018-03-06T12:41:30.758Z,56.90
2018-03-06T12:42:33.280Z,56.90
2018-03-06T12:43:35.807Z,57.30
2018-03-06T12:44:38.318Z,57.30
2018-03-06T12:45:40.899Z,57.30
2018-03-06T12:46:44.205Z,56.30
2018-03-06T12:47:46.758Z,56.70
2018-03-06T12:48:50.061Z,56.40
2018-03-06T12:49:53.352Z,56.40
2018-03-06T12:50:55.879Z,56.40
2018-03-06T12:51:59.162Z,56.30
2018-03-06T12:53:01.683Z,56.30
2018-03-06T12:54:04.194Z,56.30
2018-03-06T12:55:07.473Z,56.50
2018-03-06T12:56:10.859Z,56.50
2018-03-06T12:57:14.139Z,56.20
2018-03-06T12:58:16.651Z,56.10
2018-03-06T12:59:19.171Z,56.30
2018-03-06T13:00:21.680Z,56.20
2018-03-06T13:01:24.535Z,56.60
2018-03-06T13:02:27.051Z,56.80
2018-03-06T13:03:29.562Z,56.90
2018-03-06T13:04:32.826Z,58.30
2018-03-06T13:05:35.326Z,58.30
2018-03-06T13:06:37.865Z,58.50
2018-03-06T13:07:42.639Z,59.00
2018-03-06T13:08:45.972Z,59.20
2018-03-06T13:09:49.244Z,59.20
2018-03-06T13:10:51.768Z,59.20
2018-03-06T13:11:54.294Z,59.00
2018-03-06T13:12:57.627Z,58.90
2018-03-06T13:14:00.143Z,58.90
2018-03-06T13:15:03.469Z,60.10
2018-03-06T13:16:05.983Z,60.00
2018-03-06T13:17:09.279Z,60.20
2018-03-06T13:18:11.783Z,60.20
2018-03-06T13:19:14.302Z,60.30
2018-03-06T13:20:18.299Z,59.80
2018-03-06T13:21:21.589Z,59.70
2018-03-06T13:22:24.893Z,59.80
2018-03-06T13:23:27.410Z,59.80
2018-03-06T13:24:29.971Z,59.90
2018-03-06T13:25:32.507Z,59.90
2018-03-06T13:26:35.067Z,59.90
2018-03-06T13:27:37.619Z,59.70
2018-03-06T13:28:48.975Z,59.40
2018-03-06T13:29:52.258Z,59.40